Time;durP1;ratioP1;P1;durP2;ratioP2;P2;SDS_P1;SDS_P2;PMS_P1;PMS_P2;Temp;Humidity;BMP_temperature;BMP_pressure;BME280_temperature;BME280_humidity;BME280_pressure;Samples;Min_cycle;Max_cycle;Signal;HPM_P1;HPM_P2
2023/06/14 00:00:40;;;;;;;;;;;;;;;23.30;40.87;101305.03;5003506;28;4079;-63
2023/06/14 00:03:09;;;;;;;;;;;;;;;23.28;40.52;101318.66;5005215;28;4084;-63
2023/06/14 00:05:42;;;;;;;;;;;;;;;23.30;40.53;101318.75;5000594;28;4121;-63
2023/06/14 00:08:09;;;;;;;;;;;;;;;23.29;40.75;101317.25;5002572;28;4054;-63
2023/06/14 00:10:36;;;;;;;;;;;;;;;23.27;40.62;101317.91;5001260;28;4204;-63
2023/06/14 00:13:03;;;;;;;;;;;;;;;23.27;40.59;101315.00;4999938;28;4097;-63
2023/06/14 00:15:33;;;;;;;;;;;;;;;23.27;40.74;101314.25;4999594;28;4165;-63
2023/06/14 00:18:00;;;;;;;;;;;;;;;23.27;40.59;101320.03;5001101;28;5128;-63
2023/06/14 00:20:27;;;;;;;;;;;;;;;23.27;40.71;101308.50;5002464;28;4045;-63
2023/06/14 00:22:57;;;;;;;;;;;;;;;23.26;40.91;101313.53;4999570;28;4227;-63
2023/06/14 00:25:27;;;;;;;;;;;;;;;23.24;40.80;101310.56;5001738;28;4196;-63
2023/06/14 00:27:55;;;;;;;;;;;;;;;23.24;40.84;101319.22;5002672;28;4027;-63
2023/06/14 00:30:22;;;;;;;;;;;;;;;23.25;40.93;101317.84;5003032;28;4070;-63
2023/06/14 00:32:48;;;;;;;;;;;;;;;23.24;40.68;101322.13;4997051;28;4126;-63
2023/06/14 00:35:16;;;;;;;;;;;;;;;23.25;40.70;101326.50;5005136;28;4040;-63
2023/06/14 00:37:43;;;;;;;;;;;;;;;23.24;40.78;101310.56;5006706;28;4118;-63
2023/06/14 00:40:09;;;;;;;;;;;;;;;23.23;41.01;101311.97;5003384;28;4170;-63
2023/06/14 00:42:36;;;;;;;;;;;;;;;23.21;40.86;101317.66;5004447;28;4162;-63
2023/06/14 00:45:03;;;;;;;;;;;;;;;23.21;40.84;101315.50;5019632;28;4258;-63
2023/06/14 00:47:29;;;;;;;;;;;;;;;23.21;40.75;101318.41;5003320;28;4064;-63
2023/06/14 00:49:56;;;;;;;;;;;;;;;23.21;40.97;101312.63;5006908;28;4188;-63
2023/06/14 00:52:24;;;;;;;;;;;;;;;23.21;41.18;101317.66;4996100;28;4239;-63
2023/06/14 00:54:50;;;;;;;;;;;;;;;23.19;40.87;101315.41;5011286;28;4034;-63
2023/06/14 00:57:16;;;;;;;;;;;;;;;23.20;41.08;101324.81;4996220;28;4106;-64
2023/06/14 00:59:43;;;;;;;;;;;;;;;23.19;40.84;101329.13;5005834;28;4138;-63
2023/06/14 01:02:10;;;;;;;;;;;;;;;23.17;40.86;101320.38;5005658;28;4022;-63
2023/06/14 01:04:37;;;;;;;;;;;;;;;23.18;40.88;101313.19;5006795;28;4213;-63
2023/06/14 01:07:23;;;;;;;;;;;;;;;23.17;40.92;101323.25;5002801;28;4238;-63
2023/06/14 01:10:03;;;;;;;;;;;;;;;23.17;40.90;101320.38;5013014;28;4164;-63
2023/06/14 01:12:31;;;;;;;;;;;;;;;23.16;41.16;101327.56;5006034;28;4186;-63
2023/06/14 01:14:59;;;;;;;;;;;;;;;23.16;41.18;101321.78;4993663;28;4336;-63
2023/06/14 01:17:26;;;;;;;;;;;;;;;23.15;41.16;101323.16;5003052;28;4081;-63
2023/06/14 01:19:57;;;;;;;;;;;;;;;23.14;41.20;101318.81;4994472;28;4293;-63
2023/06/14 01:22:25;;;;;;;;;;;;;;;23.15;40.95;101320.28;5004904;28;4145;-63
2023/06/14 01:24:57;;;;;;;;;;;;;;;23.13;41.23;101317.31;5003587;28;4458;-63
2023/06/14 01:27:24;;;;;;;;;;;;;;;23.13;41.02;101311.53;5002752;28;4033;-63
2023/06/14 01:29:56;;;;;;;;;;;;;;;23.12;41.31;101315.84;4997002;28;4024;-63
2023/06/14 01:32:23;;;;;;;;;;;;;;;23.12;41.21;101318.72;5003043;28;4034;-63
2023/06/14 01:34:50;;;;;;;;;;;;;;;23.12;41.02;101319.47;5004109;28;4143;-63
2023/06/14 01:37:16;;;;;;;;;;;;;;;23.11;41.09;101314.31;5004034;28;4202;-63
2023/06/14 01:39:43;;;;;;;;;;;;;;;23.11;41.34;101308.56;5002005;28;4174;-63
2023/06/14 01:42:11;;;;;;;;;;;;;;;23.10;41.44;101318.63;5004516;28;4166;-63
2023/06/14 01:44:37;;;;;;;;;;;;;;;23.09;41.14;101312.13;5001571;28;4187;-63
2023/06/14 01:47:03;;;;;;;;;;;;;;;23.09;41.17;101309.22;5005028;28;4224;-63
2023/06/14 01:49:33;;;;;;;;;;;;;;;23.09;41.15;101309.22;5002093;28;4059;-63
2023/06/14 01:51:59;;;;;;;;;;;;;;;23.08;41.49;101310.63;5006938;28;4145;-63
2023/06/14 01:54:26;;;;;;;;;;;;;;;23.08;41.37;101307.72;5003167;28;4141;-63
2023/06/14 01:56:52;;;;;;;;;;;;;;;23.08;41.26;101315.66;5010635;28;4170;-63
2023/06/14 01:59:18;;;;;;;;;;;;;;;23.07;41.15;101311.28;5008643;28;4372;-63
2023/06/14 02:01:47;;;;;;;;;;;;;;;23.06;41.33;101315.56;5004537;28;4207;-63
2023/06/14 02:04:14;;;;;;;;;;;;;;;23.06;41.41;101306.91;5007941;28;4210;-62
2023/06/14 02:06:40;;;;;;;;;;;;;;;23.05;41.25;101314.09;5004139;28;3999;-63
2023/06/14 02:09:07;;;;;;;;;;;;;;;23.05;41.42;101311.94;5009091;28;4198;-63
2023/06/14 02:11:33;;;;;;;;;;;;;;;23.05;41.25;101322.75;5002960;28;4201;-63
2023/06/14 02:13:59;;;;;;;;;;;;;;;23.03;41.58;101314.75;5002261;28;4179;-63
2023/06/14 02:16:28;;;;;;;;;;;;;;;23.02;41.64;101324.06;5002474;28;4216;-63
2023/06/14 02:18:55;;;;;;;;;;;;;;;23.03;41.58;101317.63;5010354;28;4121;-63
2023/06/14 02:21:22;;;;;;;;;;;;;;;23.03;41.68;101319.78;5000838;28;4200;-63
2023/06/14 02:23:49;;;;;;;;;;;;;;;23.02;41.33;101318.28;5002964;28;4185;-63
2023/06/14 02:26:15;;;;;;;;;;;;;;;23.02;41.42;101324.06;5001302;28;4126;-63
2023/06/14 02:28:42;;;;;;;;;;;;;;;23.00;41.26;101316.81;5003524;28;4054;-63
2023/06/14 02:31:08;;;;;;;;;;;;;;;23.02;41.48;101324.06;4999503;28;4125;-63
2023/06/14 02:33:35;;;;;;;;;;;;;;;23.00;41.50;101322.56;5005247;28;4025;-63
2023/06/14 02:36:02;;;;;;;;;;;;;;;22.99;41.61;101323.97;5002411;28;4159;-63
2023/06/14 02:38:29;;;;;;;;;;;;;;;22.99;41.49;101323.97;5002195;28;4498;-63
2023/06/14 02:40:55;;;;;;;;;;;;;;;22.99;41.46;101321.06;5001959;28;4201;-63
2023/06/14 02:43:21;;;;;;;;;;;;;;;22.98;41.50;101328.22;5002425;28;3994;-63
2023/06/14 02:45:48;;;;;;;;;;;;;;;22.97;41.46;101323.84;5002841;28;4197;-63
2023/06/14 02:48:14;;;;;;;;;;;;;;;22.97;41.29;101332.50;4997467;28;4051;-63
2023/06/14 02:50:41;;;;;;;;;;;;;;;22.97;41.52;101328.88;5003684;28;4372;-63
2023/06/14 02:53:07;;;;;;;;;;;;;;;22.98;41.38;101330.38;5001449;28;4023;-63
2023/06/14 02:55:39;;;;;;;;;;;;;;;22.96;41.31;101328.16;5001431;28;4278;-64
2023/06/14 02:58:06;;;;;;;;;;;;;;;22.96;41.36;101331.03;5000830;28;4368;-64
2023/06/14 03:00:35;;;;;;;;;;;;;;;22.95;41.53;101329.56;4997526;28;4036;-64
2023/06/14 03:03:01;;;;;;;;;;;;;;;22.96;41.61;101330.28;5008735;28;4207;-64
2023/06/14 03:05:28;;;;;;;;;;;;;;;22.95;41.50;101335.34;5009471;28;4235;-64
2023/06/14 03:07:55;;;;;;;;;;;;;;;22.94;41.77;101330.94;5003765;28;5059;-64
2023/06/14 03:10:22;;;;;;;;;;;;;;;22.95;41.72;101337.47;5002596;28;4152;-64
2023/06/14 03:12:50;;;;;;;;;;;;;;;22.93;41.52;101326.56;5001429;28;4370;-64
2023/06/14 03:15:19;;;;;;;;;;;;;;;22.93;41.49;101334.47;4997478;28;4068;-63
2023/06/14 03:17:49;;;;;;;;;;;;;;;22.93;41.87;101329.47;5007892;28;4021;-63
2023/06/14 03:20:15;;;;;;;;;;;;;;;22.93;41.76;101335.25;4999965;28;4581;-64
2023/06/14 03:22:45;;;;;;;;;;;;;;;22.93;41.63;101335.25;4995329;28;4156;-64
2023/06/14 03:25:12;;;;;;;;;;;;;;;22.93;41.58;101335.25;4996538;28;4320;-64
2023/06/14 03:27:41;;;;;;;;;;;;;;;22.84;42.12;101330.50;4997551;28;4151;-62
2023/06/14 03:30:07;;;;;;;;;;;;;;;22.94;41.63;101342.50;4997038;28;4110;-69
2023/06/14 03:32:35;;;;;;;;;;;;;;;22.40;42.34;101338.66;5014171;28;4389;-66
2023/06/14 03:35:02;;;;;;;;;;;;;;;21.92;43.10;101347.25;5001547;28;4055;-65
2023/06/14 03:37:29;;;;;;;;;;;;;;;22.29;42.39;101348.25;5008079;28;4236;-66
2023/06/14 03:39:55;;;;;;;;;;;;;;;22.56;42.06;101345.19;5010438;28;3960;-66
2023/06/14 03:42:24;;;;;;;;;;;;;;;22.68;41.84;101344.25;5009384;28;4209;-66
2023/06/14 03:44:50;;;;;;;;;;;;;;;22.74;41.80;101347.38;5004235;28;4023;-66
2023/06/14 03:47:19;;;;;;;;;;;;;;;22.78;41.92;101353.34;5002799;28;4162;-66
2023/06/14 03:49:46;;;;;;;;;;;;;;;22.81;41.97;101354.91;5009792;28;4601;-66
2023/06/14 03:52:13;;;;;;;;;;;;;;;22.82;41.96;101356.41;5004076;28;4327;-65
2023/06/14 03:54:43;;;;;;;;;;;;;;;22.83;42.06;101348.47;5008544;28;4346;-66
2023/06/14 03:57:31;;;;;;;;;;;;;;;22.83;42.04;101349.22;5003877;28;4189;-66
2023/06/14 03:59:58;;;;;;;;;;;;;;;22.84;41.79;101356.50;5009813;28;4113;-66
2023/06/14 04:02:28;;;;;;;;;;;;;;;22.85;42.16;101357.97;5018185;28;4290;-65
2023/06/14 04:04:56;;;;;;;;;;;;;;;22.84;42.11;101353.63;5000673;28;4141;-66
2023/06/14 04:07:23;;;;;;;;;;;;;;;22.85;41.83;101369.53;5008038;28;4470;-65
2023/06/14 04:09:50;;;;;;;;;;;;;;;22.86;42.02;101364.50;5013803;28;4143;-66
2023/06/14 04:12:17;;;;;;;;;;;;;;;22.84;41.84;101362.28;5022931;28;4027;-66
2023/06/14 04:14:43;;;;;;;;;;;;;;;22.84;41.93;101359.38;5007937;28;4160;-66
2023/06/14 04:17:10;;;;;;;;;;;;;;;22.85;42.33;101352.19;5003222;28;4153;-66
2023/06/14 04:19:38;;;;;;;;;;;;;;;22.84;41.88;101353.63;5015076;28;4066;-66
2023/06/14 04:22:05;;;;;;;;;;;;;;;22.85;42.08;101357.25;5007121;28;4260;-66
2023/06/14 04:24:34;;;;;;;;;;;;;;;22.84;42.18;101361.50;5012639;28;4127;-66
2023/06/14 04:27:02;;;;;;;;;;;;;;;22.84;42.04;101368.06;5008865;28;5069;-69
2023/06/14 04:29:29;;;;;;;;;;;;;;;22.84;42.06;101373.81;5014946;28;4153;-65
2023/06/14 04:32:01;;;;;;;;;;;;;;;22.84;42.32;101376.72;5011882;28;4079;-66
2023/06/14 04:34:31;;;;;;;;;;;;;;;22.82;42.19;101376.63;5007702;28;4216;-66
2023/06/14 04:36:59;;;;;;;;;;;;;;;22.83;42.17;101378.09;5010346;28;4118;-66
2023/06/14 04:39:30;;;;;;;;;;;;;;;22.84;42.42;101379.59;5023996;28;4117;-66
2023/06/14 04:42:00;;;;;;;;;;;;;;;22.82;42.52;101370.84;5003404;28;4453;-66
2023/06/14 04:44:29;;;;;;;;;;;;;;;22.82;42.57;101373.72;5023250;28;4059;-66
2023/06/14 04:46:58;;;;;;;;;;;;;;;22.83;42.61;101377.34;5007222;28;4164;-66
2023/06/14 04:49:27;;;;;;;;;;;;;;;22.83;42.35;101377.34;5010177;28;4010;-66
2023/06/14 04:51:59;;;;;;;;;;;;;;;22.83;42.41;101375.22;5004799;28;4307;-66
2023/06/14 04:54:27;;;;;;;;;;;;;;;22.82;42.31;101379.50;5012849;28;4387;-66
2023/06/14 04:56:55;;;;;;;;;;;;;;;22.83;42.24;101377.34;5006367;28;4233;-66
2023/06/14 04:59:24;;;;;;;;;;;;;;;22.81;42.51;101372.22;5012696;28;4112;-66
2023/06/14 05:01:51;;;;;;;;;;;;;;;22.82;42.61;101370.84;5002294;28;4221;-67
2023/06/14 05:04:18;;;;;;;;;;;;;;;22.82;42.70;101379.50;5003233;28;4199;-66
2023/06/14 05:06:50;;;;;;;;;;;;;;;22.80;42.27;101368.59;5003128;28;4263;-66
2023/06/14 05:09:16;;;;;;;;;;;;;;;22.81;42.42;101375.13;5012159;28;4092;-66
2023/06/14 05:11:43;;;;;;;;;;;;;;;22.81;42.72;101369.34;5014053;28;4119;-66
2023/06/14 05:14:11;;;;;;;;;;;;;;;22.81;42.69;101380.88;5003828;28;4276;-66
2023/06/14 05:16:39;;;;;;;;;;;;;;;22.82;42.40;101382.41;5014073;28;3997;-66
2023/06/14 05:19:05;;;;;;;;;;;;;;;22.81;42.71;101386.66;5009989;28;4277;-66
2023/06/14 05:21:33;;;;;;;;;;;;;;;22.81;42.58;101389.56;5004258;28;3938;-66
2023/06/14 05:24:06;;;;;;;;;;;;;;;22.80;42.73;101388.06;5002273;28;4227;-66
2023/06/14 05:26:33;;;;;;;;;;;;;;;22.82;42.41;101384.53;5002119;28;4127;-66
2023/06/14 05:29:01;;;;;;;;;;;;;;;22.81;42.70;101386.66;5007316;28;4328;-66
2023/06/14 05:31:27;;;;;;;;;;;;;;;22.81;42.78;101380.88;5005066;28;4062;-66
2023/06/14 05:33:54;;;;;;;;;;;;;;;22.81;42.45;101383.78;5003490;28;4280;-66
2023/06/14 05:36:21;;;;;;;;;;;;;;;22.80;42.52;101388.06;5003593;28;4146;-66
2023/06/14 05:38:47;;;;;;;;;;;;;;;22.81;42.74;101395.34;5005517;28;4579;-66
2023/06/14 05:41:14;;;;;;;;;;;;;;;22.79;42.79;101390.22;5011001;28;4169;-66
2023/06/14 05:43:40;;;;;;;;;;;;;;;22.79;42.63;101387.34;5010085;28;4179;-66
2023/06/14 05:46:07;;;;;;;;;;;;;;;22.80;42.89;101391.69;5006840;28;4136;-66
2023/06/14 05:48:33;;;;;;;;;;;;;;;22.80;42.73;101397.47;5010184;28;4093;-66
2023/06/14 05:51:00;;;;;;;;;;;;;;;22.80;42.53;101394.59;5009307;28;4057;-66
2023/06/14 05:53:26;;;;;;;;;;;;;;;22.81;42.72;101401.09;5006007;28;4012;-66
2023/06/14 05:55:54;;;;;;;;;;;;;;;22.80;42.77;101400.38;5010783;28;3998;-66
2023/06/14 05:58:21;;;;;;;;;;;;;;;22.80;42.85;101394.59;5010420;28;4173;-66
2023/06/14 06:00:48;;;;;;;;;;;;;;;22.82;42.86;101399.72;5005149;28;4093;-66
2023/06/14 06:03:14;;;;;;;;;;;;;;;22.82;42.66;101402.59;5008673;28;4475;-66
2023/06/14 06:05:41;;;;;;;;;;;;;;;22.83;43.09;101409.84;5013487;28;4112;-66
2023/06/14 06:08:07;;;;;;;;;;;;;;;22.83;42.75;101398.31;5005118;28;4920;-66
2023/06/14 06:10:34;;;;;;;;;;;;;;;22.83;42.91;101404.09;5008537;28;4184;-66
2023/06/14 06:13:00;;;;;;;;;;;;;;;22.83;43.02;101401.19;5007972;28;4067;-66
2023/06/14 06:15:27;;;;;;;;;;;;;;;22.81;42.87;101406.88;5004915;28;4012;-66
2023/06/14 06:17:53;;;;;;;;;;;;;;;22.75;42.96;101409.50;5007078;28;4257;-65
2023/06/14 06:20:29;;;;;;;;;;;;;;;22.84;42.71;101410.59;5002299;28;4130;-65
2023/06/14 06:22:56;;;;;;;;;;;;;;;22.83;43.02;101406.97;5001452;28;4204;-64
2023/06/14 06:25:25;;;;;;;;;;;;;;;22.38;43.80;101410.72;5001269;28;4209;-64
2023/06/14 06:27:52;;;;;;;;;;;;;;;22.20;44.41;101413.47;5002891;28;4320;-65
2023/06/14 06:30:19;;;;;;;;;;;;;;;22.13;44.60;101412.41;5003898;28;4121;-65
2023/06/14 06:32:46;;;;;;;;;;;;;;;22.12;44.58;101419.56;5003848;28;4458;-65
2023/06/14 06:35:12;;;;;;;;;;;;;;;22.09;44.50;101414.38;5006136;28;4040;-65
2023/06/14 06:37:39;;;;;;;;;;;;;;;21.99;44.75;101417.50;5002704;28;4162;-65
2023/06/14 06:40:06;;;;;;;;;;;;;;;22.02;45.07;101421.97;5004775;28;3946;-65
2023/06/14 06:42:32;;;;;;;;;;;;;;;22.03;45.01;101422.72;5003527;28;4143;-65
2023/06/14 06:45:02;;;;;;;;;;;;;;;22.02;45.01;101427.00;5004145;28;5020;-65
2023/06/14 06:47:28;;;;;;;;;;;;;;;21.95;45.14;101418.03;5004810;28;4150;-65
2023/06/14 06:49:55;;;;;;;;;;;;;;;21.90;45.39;101422.13;5011659;28;4177;-65
2023/06/14 06:52:21;;;;;;;;;;;;;;;21.95;45.32;101417.31;5005626;28;4169;-65
2023/06/14 06:54:49;;;;;;;;;;;;;;;21.89;45.64;101419.88;5002696;28;4425;-65
2023/06/14 06:57:15;;;;;;;;;;;;;;;21.90;45.56;101418.50;5005881;28;4493;-65
2023/06/14 06:59:41;;;;;;;;;;;;;;;21.87;45.48;101423.41;5004120;28;4522;-65
2023/06/14 07:02:08;;;;;;;;;;;;;;;21.82;45.78;101421.72;5003251;28;4184;-65
2023/06/14 07:04:34;;;;;;;;;;;;;;;21.81;45.57;101425.25;5004589;28;4217;-65
2023/06/14 07:07:01;;;;;;;;;;;;;;;21.76;45.77;101424.28;5005483;28;4121;-66
2023/06/14 07:09:27;;;;;;;;;;;;;;;21.86;45.67;101435.59;5008776;28;4154;-63
2023/06/14 07:11:53;;;;;;;;;;;;;;;21.98;45.69;101444.84;5008618;28;4300;-65
2023/06/14 07:14:22;;;;;;;;;;;;;;;21.99;45.56;101440.56;5004658;28;3997;-63
2023/06/14 07:16:49;;;;;;;;;;;;;;;22.03;45.61;101446.53;5009935;28;4142;-63
2023/06/14 07:19:15;;;;;;;;;;;;;;;22.08;45.69;101454.00;5010847;28;4091;-64
2023/06/14 07:21:42;;;;;;;;;;;;;;;22.15;45.61;101457.91;5006459;28;4458;-65
2023/06/14 07:24:08;;;;;;;;;;;;;;;22.04;45.82;101447.28;5001089;28;4396;-62
2023/06/14 07:26:35;;;;;;;;;;;;;;;22.02;45.86;101455.84;5006937;28;4118;-64
2023/06/14 07:29:01;;;;;;;;;;;;;;;22.14;45.34;101454.28;4999873;28;4765;-64
2023/06/14 07:31:28;;;;;;;;;;;;;;;22.25;45.07;101461.31;5003082;28;4549;-64
2023/06/14 07:33:54;;;;;;;;;;;;;;;22.30;45.15;101463.00;5008074;28;4022;-64
2023/06/14 07:36:21;;;;;;;;;;;;;;;22.35;44.71;101458.91;5006356;28;4171;-64
2023/06/14 07:38:47;;;;;;;;;;;;;;;22.38;44.84;101456.88;5001752;28;4304;-64
2023/06/14 07:41:14;;;;;;;;;;;;;;;22.24;45.41;101454.06;5003842;28;5358;-64
2023/06/14 07:43:40;;;;;;;;;;;;;;;22.09;45.79;101466.28;5005605;28;4269;-65
2023/06/14 07:46:08;;;;;;;;;;;;;;;21.82;46.36;101458.47;5010175;28;4201;-65
2023/06/14 07:48:34;;;;;;;;;;;;;;;21.71;47.00;101460.81;5013891;28;4494;-65
2023/06/14 07:51:01;;;;;;;;;;;;;;;21.62;47.24;101456.03;5014385;28;4194;-65
2023/06/14 07:53:28;;;;;;;;;;;;;;;21.61;47.11;101448.78;5008377;28;4109;-63
2023/06/14 07:55:54;;;;;;;;;;;;;;;21.71;47.48;101439.91;5003279;28;4248;-63
2023/06/14 07:58:20;;;;;;;;;;;;;;;21.75;47.82;101452.38;5011267;28;4015;-64
2023/06/14 08:00:47;;;;;;;;;;;;;;;21.84;47.46;101449.91;5006589;28;4570;-64
2023/06/14 08:03:14;;;;;;;;;;;;;;;21.80;47.38;101449.69;5009503;28;4039;-64
2023/06/14 08:05:40;;;;;;;;;;;;;;;21.75;47.44;101437.97;5010726;28;3971;-65
2023/06/14 08:08:07;;;;;;;;;;;;;;;21.70;47.86;101444.94;5005285;28;4110;-65
2023/06/14 08:10:33;;;;;;;;;;;;;;;21.71;47.74;101446.41;5007697;28;4073;-65
2023/06/14 08:12:59;;;;;;;;;;;;;;;21.72;47.21;101450.78;5012821;28;4184;-65
2023/06/14 08:15:26;;;;;;;;;;;;;;;21.66;47.05;101424.53;5010959;28;3976;-64
2023/06/14 08:17:52;;;;;;;;;;;;;;;21.71;46.98;101434.88;5011188;28;4095;-65
2023/06/14 08:20:19;;;;;;;;;;;;;;;21.71;47.04;101434.13;5011376;28;4048;-65
2023/06/14 08:22:48;;;;;;;;;;;;;;;21.73;46.79;101434.97;5005589;28;4526;-65
2023/06/14 08:25:14;;;;;;;;;;;;;;;21.80;46.87;101433.16;5007960;28;4035;-64
2023/06/14 08:27:41;;;;;;;;;;;;;;;21.94;46.66;101433.09;5006997;28;4424;-65
2023/06/14 08:30:08;;;;;;;;;;;;;;;22.02;46.58;101430.63;5007814;28;4069;-64
2023/06/14 08:32:34;;;;;;;;;;;;;;;22.11;46.12;101428.88;5003470;28;4195;-63
2023/06/14 08:35:02;;;;;;;;;;;;;;;22.18;46.08;101442.94;5006366;28;4123;-63
2023/06/14 08:37:33;;;;;;;;;;;;;;;22.22;45.84;101433.00;5008490;28;4307;-63
2023/06/14 08:39:59;;;;;;;;;;;;;;;22.22;45.94;101442.44;5007788;28;4145;-64
2023/06/14 08:42:26;;;;;;;;;;;;;;;22.24;45.49;101441.75;5009300;28;4065;-64
2023/06/14 08:44:57;;;;;;;;;;;;;;;22.26;45.59;101425.28;5012073;28;4046;-63
2023/06/14 08:47:25;;;;;;;;;;;;;;;22.29;45.73;101437.69;5008025;28;3992;-64
2023/06/14 08:49:52;;;;;;;;;;;;;;;22.29;45.82;101437.69;5006465;28;4177;-63
2023/06/14 08:52:20;;;;;;;;;;;;;;;22.30;45.49;101433.41;5006016;28;4150;-63
2023/06/14 08:54:48;;;;;;;;;;;;;;;22.35;45.71;101426.44;5005069;28;4018;-64
2023/06/14 08:57:16;;;;;;;;;;;;;;;22.36;45.39;101433.72;5006625;28;4100;-63
2023/06/14 08:59:46;;;;;;;;;;;;;;;22.38;45.46;101428.03;5004928;28;4163;-64
2023/06/14 09:02:13;;;;;;;;;;;;;;;22.39;45.15;101423.75;5005902;28;4051;-64
2023/06/14 09:04:39;;;;;;;;;;;;;;;22.41;45.69;101426.72;5007458;28;4323;-64
2023/06/14 09:07:06;;;;;;;;;;;;;;;22.42;45.39;101428.19;5007562;28;4143;-63
2023/06/14 09:09:34;;;;;;;;;;;;;;;22.44;45.04;101428.31;5008077;28;4250;-63
2023/06/14 09:12:00;;;;;;;;;;;;;;;22.45;45.45;101426.16;5008331;28;4421;-64
2023/06/14 09:14:27;;;;;;;;;;;;;;;22.46;45.28;101427.66;5003810;28;4033;-63
2023/06/14 09:16:54;;;;;;;;;;;;;;;22.46;45.17;101425.50;5003621;28;4146;-63
2023/06/14 09:19:23;;;;;;;;;;;;;;;22.48;45.20;101436.41;5011177;28;4198;-63
2023/06/14 09:21:49;;;;;;;;;;;;;;;22.50;45.22;101434.38;5005024;28;4119;-64
2023/06/14 09:24:16;;;;;;;;;;;;;;;22.50;45.15;101428.59;5003670;28;4074;-63
2023/06/14 09:26:42;;;;;;;;;;;;;;;22.51;44.78;101426.44;5008317;28;3932;-63
2023/06/14 09:29:09;;;;;;;;;;;;;;;22.52;45.04;101430.84;5006288;28;3976;-63
2023/06/14 09:31:35;;;;;;;;;;;;;;;22.52;45.00;101431.56;5005076;28;4353;-63
2023/06/14 09:34:02;;;;;;;;;;;;;;;22.53;44.99;101430.16;5005135;28;4121;-62
2023/06/14 09:36:31;;;;;;;;;;;;;;;22.52;45.00;101434.47;5008972;28;4309;-63
2023/06/14 09:39:00;;;;;;;;;;;;;;;22.56;44.65;101426.00;5007514;28;4136;-63
2023/06/14 09:41:30;;;;;;;;;;;;;;;22.59;44.68;101430.47;5012792;28;4162;-63
2023/06/14 09:44:00;;;;;;;;;;;;;;;22.61;44.60;101431.94;5004412;28;4311;-62
2023/06/14 09:46:26;;;;;;;;;;;;;;;22.59;44.85;101430.47;5002074;28;4325;-63
2023/06/14 09:48:53;;;;;;;;;;;;;;;22.62;44.98;101425.53;5003355;28;4096;-69
2023/06/14 09:51:20;;;;;;;;;;;;;;;22.66;44.80;101430.75;5002467;28;3979;-70
2023/06/14 09:53:47;;;;;;;;;;;;;;;22.67;44.68;101432.97;5002898;28;4129;-69
2023/06/14 09:56:13;;;;;;;;;;;;;;;22.69;44.76;101429.44;4991348;28;4201;-70
2023/06/14 09:58:40;;;;;;;;;;;;;;;22.72;44.58;101440.44;5003371;28;4097;-70
2023/06/14 10:01:06;;;;;;;;;;;;;;;22.74;44.72;101428.97;5005625;28;4073;-70
2023/06/14 10:03:33;;;;;;;;;;;;;;;22.75;44.63;101424.69;5008549;28;4149;-70
2023/06/14 10:06:21;;;;;;;;;;;;;;;22.78;45.14;101429.16;5002943;28;7826;-70
2023/06/14 10:08:47;;;;;;;;;;;;;;;22.82;44.99;101428.59;5006258;28;4175;-69
2023/06/14 10:11:13;;;;;;;;;;;;;;;22.82;44.77;101427.84;5005151;28;4017;-69
2023/06/14 10:13:40;;;;;;;;;;;;;;;22.81;45.15;101429.97;5002450;28;4230;-69
2023/06/14 10:16:10;;;;;;;;;;;;;;;22.86;45.09;101428.78;5005284;28;4285;-69
2023/06/14 10:18:55;;;;;;;;;;;;;;;22.88;44.96;101431.00;5002269;28;4794;-69
2023/06/14 10:21:23;;;;;;;;;;;;;;;22.88;45.20;101437.50;5007159;28;4171;-69
2023/06/14 10:23:49;;;;;;;;;;;;;;;22.92;45.02;101423.25;5002025;28;4051;-69
2023/06/14 10:26:21;;;;;;;;;;;;;;;22.91;45.02;101430.44;5004060;28;4131;-69
2023/06/14 10:28:57;;;;;;;;;;;;;;;22.93;44.95;101421.88;5000817;28;4160;-69
2023/06/14 10:31:39;;;;;;;;;;;;;;;22.94;44.89;101417.59;4999149;28;4176;-72
2023/06/14 10:34:05;;;;;;;;;;;;;;;22.96;45.15;101414.03;5005648;28;4200;-73
2023/06/14 10:36:34;;;;;;;;;;;;;;;22.96;45.11;101416.94;5001194;28;4178;-72
2023/06/14 10:39:20;;;;;;;;;;;;;;;22.95;45.04;101413.31;5000303;28;4176;-71
2023/06/14 10:41:53;;;;;;;;;;;;;;;22.96;44.88;101411.91;4999683;28;4160;-71
2023/06/14 10:44:20;;;;;;;;;;;;;;;22.97;44.82;101416.25;5004353;28;3962;-71
2023/06/14 10:46:46;;;;;;;;;;;;;;;22.98;44.97;101412.00;5001748;28;4176;-71
2023/06/14 10:49:18;;;;;;;;;;;;;;;22.99;45.11;101410.59;4999482;28;4117;-71
2023/06/14 10:51:48;;;;;;;;;;;;;;;23.00;44.93;101415.00;5001460;28;4100;-72
2023/06/14 10:54:17;;;;;;;;;;;;;;;23.02;45.06;101399.16;5004453;28;4220;-71
2023/06/14 10:56:48;;;;;;;;;;;;;;;23.04;44.94;101399.97;5001900;28;4509;-71
2023/06/14 10:59:15;;;;;;;;;;;;;;;23.05;44.95;101410.16;5006901;28;4337;-71
2023/06/14 11:01:49;;;;;;;;;;;;;;;23.05;44.85;101401.47;5007519;28;4055;-71
2023/06/14 11:04:16;;;;;;;;;;;;;;;23.08;45.33;101403.06;5011444;28;4177;-71
2023/06/14 11:06:46;;;;;;;;;;;;;;;23.10;45.00;101399.50;5006292;28;4033;-71
2023/06/14 11:09:13;;;;;;;;;;;;;;;23.06;45.07;101400.06;5004205;28;4112;-71
2023/06/14 11:11:39;;;;;;;;;;;;;;;23.08;45.04;101390.75;5005485;28;4090;-71
2023/06/14 11:14:06;;;;;;;;;;;;;;;23.08;45.23;101390.75;5005797;28;5635;-71
2023/06/14 11:16:33;;;;;;;;;;;;;;;23.10;45.03;101387.97;5002806;28;4174;-71
2023/06/14 11:19:05;;;;;;;;;;;;;;;23.09;45.13;101386.47;5007120;28;4222;-71
2023/06/14 11:21:33;;;;;;;;;;;;;;;23.11;45.01;101389.44;5005133;28;4085;-72
2023/06/14 11:23:59;;;;;;;;;;;;;;;23.12;45.28;101385.16;5004878;28;4144;-74
2023/06/14 11:26:27;;;;;;;;;;;;;;;23.08;45.34;101379.19;5005653;28;4187;-71
2023/06/14 11:28:57;;;;;;;;;;;;;;;23.13;45.16;101380.88;5003533;28;4083;-71
2023/06/14 11:31:23;;;;;;;;;;;;;;;23.14;45.09;101376.59;5001903;28;4996;-71
2023/06/14 11:33:50;;;;;;;;;;;;;;;23.13;44.86;101369.31;5001897;28;4204;-71
2023/06/14 11:36:16;;;;;;;;;;;;;;;23.12;44.96;101370.72;5004698;28;4160;-72
2023/06/14 11:38:43;;;;;;;;;;;;;;;23.10;45.11;101370.63;5002315;28;4133;-72
2023/06/14 11:41:10;;;;;;;;;;;;;;;23.09;45.03;101369.13;5000292;28;4360;-72
2023/06/14 11:43:37;;;;;;;;;;;;;;;23.17;44.76;101363.72;4993870;28;4206;-72
2023/06/14 11:46:03;;;;;;;;;;;;;;;23.17;44.74;101357.94;4999078;28;4162;-72
2023/06/14 11:48:37;;;;;;;;;;;;;;;23.19;44.62;101352.97;4998105;28;4172;-71
2023/06/14 11:51:04;;;;;;;;;;;;;;;23.23;44.39;101357.44;4996582;28;4286;-72
2023/06/14 11:53:30;;;;;;;;;;;;;;;23.23;44.23;101349.53;4999007;28;4529;-72
2023/06/14 11:55:57;;;;;;;;;;;;;;;23.25;44.20;101349.63;5001651;28;4190;-72
2023/06/14 11:58:23;;;;;;;;;;;;;;;23.26;44.15;101351.09;5001302;28;5201;-72
2023/06/14 12:00:50;;;;;;;;;;;;;;;23.26;44.27;101335.91;5000720;28;4330;-72
2023/06/14 12:03:16;;;;;;;;;;;;;;;23.25;44.22;101338.06;4996812;28;4142;-72
2023/06/14 12:05:43;;;;;;;;;;;;;;;23.28;44.13;101330.94;5002512;28;4325;-72
2023/06/14 12:08:10;;;;;;;;;;;;;;;23.28;44.36;101328.06;4998948;28;4171;-72
2023/06/14 12:10:40;;;;;;;;;;;;;;;23.27;44.19;101332.34;4999334;28;4243;-70
2023/06/14 12:13:07;;;;;;;;;;;;;;;23.57;44.42;101329.97;4992862;28;4141;-73
2023/06/14 12:15:34;;;;;;;;;;;;;;;23.55;44.12;101327.00;5003463;28;4381;-71
2023/06/14 12:18:01;;;;;;;;;;;;;;;23.66;44.06;101321.63;5006263;28;4171;-70
2023/06/14 12:20:30;;;;;;;;;;;;;;;23.69;44.44;101317.44;5005529;28;4168;-69
2023/06/14 12:23:02;;;;;;;;;;;;;;;23.71;44.08;101315.34;5002235;28;4064;-70
2023/06/14 12:25:32;;;;;;;;;;;;;;;23.74;44.19;101324.84;5003159;28;4031;-69
2023/06/14 12:27:59;;;;;;;;;;;;;;;23.73;44.23;101324.13;5009398;28;4060;-69
2023/06/14 12:30:25;;;;;;;;;;;;;;;23.76;44.40;101322.06;5006389;28;4126;-70
2023/06/14 12:32:52;;;;;;;;;;;;;;;23.76;44.28;101317.03;5008304;28;4056;-69
2023/06/14 12:35:18;;;;;;;;;;;;;;;23.76;44.21;101311.25;5004797;28;4218;-69
2023/06/14 12:37:45;;;;;;;;;;;;;;;23.78;44.27;101314.22;5006829;28;4127;-69
2023/06/14 12:40:12;;;;;;;;;;;;;;;23.91;44.77;101308.91;5003528;28;4138;-68
2023/06/14 12:42:38;;;;;;;;;;;;;;;23.97;44.06;101312.03;5002262;28;4021;-69
2023/06/14 12:45:05;;;;;;;;;;;;;;;23.98;43.72;101310.63;5002994;28;4061;-65
2023/06/14 12:47:31;;;;;;;;;;;;;;;23.88;43.84;101310.22;5002973;28;4217;-65
2023/06/14 12:49:58;;;;;;;;;;;;;;;23.79;44.03;101315.69;5004085;28;4217;-63